Terminal Aerodrome Forecast
Issued by NWS

Current Version | Previous Version | Graphics & Text | Print | Product List | Glossary On
Versions: 1 2 3 4 5 6 7 8 9 10 11 12 13 14 15 16 17 18 19 20 21
323
FTUS41 KPBZ 200821 AAA
TAFMGW
TAF AMD
KMGW 200821Z 2008/2106 32003KT P6SM SCT035
     FM201500 33008KT P6SM BKN150=

USA.gov is the U.S. government's official web portal to all federal, state and local government web resources and services.